sensor_id;sensor_type;location;lat;lon;timestamp;pressure;altitude;pressure_sealevel;temperature;humidity
64115;BME280;62188;35.640;139.748;2023-03-31T00:01:17;101894.81;;;21.69;34.39
64115;BME280;62188;35.640;139.748;2023-03-31T00:03:42;101892.79;;;21.76;33.96
64115;BME280;62188;35.640;139.748;2023-03-31T00:06:08;101894.00;;;22.02;33.68
64115;BME280;62188;35.640;139.748;2023-03-31T00:08:33;101893.21;;;22.25;33.45
64115;BME280;62188;35.640;139.748;2023-03-31T00:10:59;101899.09;;;22.52;33.30
64115;BME280;62188;35.640;139.748;2023-03-31T00:13:24;101900.83;;;22.45;32.91
64115;BME280;62188;35.640;139.748;2023-03-31T00:15:48;101902.89;;;22.49;32.57
64115;BME280;62188;35.640;139.748;2023-03-31T00:18:15;101901.51;;;22.61;32.36
64115;BME280;62188;35.640;139.748;2023-03-31T00:20:40;101898.57;;;22.83;32.22
64115;BME280;62188;35.640;139.748;2023-03-31T00:23:06;101897.56;;;22.68;31.83
64115;BME280;62188;35.640;139.748;2023-03-31T00:25:31;101898.95;;;22.94;31.86
64115;BME280;62188;35.640;139.748;2023-03-31T00:27:59;101899.55;;;23.06;31.68
64115;BME280;62188;35.640;139.748;2023-03-31T00:30:22;101900.25;;;22.73;31.34
64115;BME280;62188;35.640;139.748;2023-03-31T00:32:47;101901.72;;;22.74;31.22
64115;BME280;62188;35.640;139.748;2023-03-31T00:35:13;101897.07;;;22.69;30.62
64115;BME280;62188;35.640;139.748;2023-03-31T00:37:38;101891.64;;;22.76;31.01
64115;BME280;62188;35.640;139.748;2023-03-31T00:40:05;101891.08;;;22.90;30.95
64115;BME280;62188;35.640;139.748;2023-03-31T00:42:29;101889.19;;;23.15;30.83
64115;BME280;62188;35.640;139.748;2023-03-31T00:45:22;101885.83;;;22.90;30.68
64115;BME280;62188;35.640;139.748;2023-03-31T00:47:21;101886.96;;;22.87;30.58
64115;BME280;62188;35.640;139.748;2023-03-31T00:49:48;101883.21;;;22.57;30.74
64115;BME280;62188;35.640;139.748;2023-03-31T00:52:14;101876.99;;;22.28;31.00
64115;BME280;62188;35.640;139.748;2023-03-31T00:54:36;101875.03;;;22.48;31.13
64115;BME280;62188;35.640;139.748;2023-03-31T00:57:02;101878.43;;;22.77;30.95
64115;BME280;62188;35.640;139.748;2023-03-31T00:59:29;101878.39;;;22.10;29.44
64115;BME280;62188;35.640;139.748;2023-03-31T01:01:52;101877.83;;;22.22;29.54
64115;BME280;62188;35.640;139.748;2023-03-31T01:04:19;101882.00;;;21.97;29.41
64115;BME280;62188;35.640;139.748;2023-03-31T01:06:51;101882.25;;;21.45;30.00
64115;BME280;62188;35.640;139.748;2023-03-31T01:09:08;101878.35;;;21.75;30.03
64115;BME280;62188;35.640;139.748;2023-03-31T01:11:34;101872.29;;;21.84;30.17
64115;BME280;62188;35.640;139.748;2023-03-31T01:13:59;101864.60;;;22.17;29.71
64115;BME280;62188;35.640;139.748;2023-03-31T01:16:24;101855.46;;;22.36;29.52
64115;BME280;62188;35.640;139.748;2023-03-31T01:18:50;101854.51;;;22.86;29.51
64115;BME280;62188;35.640;139.748;2023-03-31T01:28:39;101838.69;;;22.49;26.41
64115;BME280;62188;35.640;139.748;2023-03-31T01:43:07;101826.42;;;22.23;26.08
64115;BME280;62188;35.640;139.748;2023-03-31T01:45:41;101819.54;;;22.32;26.47
64115;BME280;62188;35.640;139.748;2023-03-31T01:47:58;101820.64;;;21.88;27.19
64115;BME280;62188;35.640;139.748;2023-03-31T01:50:25;101815.23;;;21.89;27.29
64115;BME280;62188;35.640;139.748;2023-03-31T01:52:48;101812.00;;;21.88;27.52
64115;BME280;62188;35.640;139.748;2023-03-31T01:55:17;101810.38;;;21.82;27.64
64115;BME280;62188;35.640;139.748;2023-03-31T01:57:39;101806.47;;;21.98;27.58
64115;BME280;62188;35.640;139.748;2023-03-31T02:00:06;101805.00;;;21.96;27.49
64115;BME280;62188;35.640;139.748;2023-03-31T02:02:31;101803.56;;;22.18;27.56
64115;BME280;62188;35.640;139.748;2023-03-31T02:05:02;101799.00;;;21.92;28.78
64115;BME280;62188;35.640;139.748;2023-03-31T02:07:21;101793.18;;;21.86;29.18
64115;BME280;62188;35.640;139.748;2023-03-31T02:09:46;101788.13;;;21.88;30.15
64115;BME280;62188;35.640;139.748;2023-03-31T02:12:12;101788.96;;;22.14;30.43
64115;BME280;62188;35.640;139.748;2023-03-31T02:14:39;101778.83;;;22.12;30.69
64115;BME280;62188;35.640;139.748;2023-03-31T02:17:02;101777.77;;;21.97;30.52
64115;BME280;62188;35.640;139.748;2023-03-31T02:19:30;101770.31;;;22.16;30.02
64115;BME280;62188;35.640;139.748;2023-03-31T02:21:52;101777.09;;;22.16;29.73
64115;BME280;62188;35.640;139.748;2023-03-31T02:24:20;101775.92;;;21.75;30.01
64115;BME280;62188;35.640;139.748;2023-03-31T02:26:51;101775.04;;;21.81;29.85
64115;BME280;62188;35.640;139.748;2023-03-31T02:29:09;101774.32;;;21.67;30.65
64115;BME280;62188;35.640;139.748;2023-03-31T02:31:42;101768.05;;;21.58;29.60
64115;BME280;62188;35.640;139.748;2023-03-31T02:34:00;101762.23;;;21.53;27.22
64115;BME280;62188;35.640;139.748;2023-03-31T02:36:25;101755.13;;;21.29;28.84
64115;BME280;62188;35.640;139.748;2023-03-31T02:38:54;101750.73;;;21.53;29.63
64115;BME280;62188;35.640;139.748;2023-03-31T02:41:19;101748.07;;;21.54;29.20
64115;BME280;62188;35.640;139.748;2023-03-31T02:43:42;101741.32;;;20.94;28.61
64115;BME280;62188;35.640;139.748;2023-03-31T02:46:08;101743.43;;;21.11;28.49
64115;BME280;62188;35.640;139.748;2023-03-31T02:48:36;101746.23;;;21.31;27.75
64115;BME280;62188;35.640;139.748;2023-03-31T02:51:11;101738.34;;;20.96;27.28
64115;BME280;62188;35.640;139.748;2023-03-31T02:53:29;101733.95;;;20.86;27.41
64115;BME280;62188;35.640;139.748;2023-03-31T02:55:59;101728.49;;;20.67;27.85
64115;BME280;62188;35.640;139.748;2023-03-31T02:58:23;101724.91;;;20.41;28.36
64115;BME280;62188;35.640;139.748;2023-03-31T03:00:51;101722.79;;;20.54;29.06
64115;BME280;62188;35.640;139.748;2023-03-31T03:03:17;101718.05;;;20.70;29.08
64115;BME280;62188;35.640;139.748;2023-03-31T03:05:37;101715.85;;;20.44;29.07
64115;BME280;62188;35.640;139.748;2023-03-31T03:08:04;101707.36;;;20.88;29.29
64115;BME280;62188;35.640;139.748;2023-03-31T03:10:32;101702.11;;;20.99;29.86
64115;BME280;62188;35.640;139.748;2023-03-31T03:12:53;101694.33;;;20.86;30.20
64115;BME280;62188;35.640;139.748;2023-03-31T03:15:18;101688.12;;;20.61;30.61
64115;BME280;62188;35.640;139.748;2023-03-31T03:17:40;101683.17;;;20.64;30.48
64115;BME280;62188;35.640;139.748;2023-03-31T03:20:06;101681.76;;;20.81;30.71
64115;BME280;62188;35.640;139.748;2023-03-31T03:22:29;101680.47;;;20.75;30.71
64115;BME280;62188;35.640;139.748;2023-03-31T03:24:55;101678.28;;;20.86;30.73
64115;BME280;62188;35.640;139.748;2023-03-31T03:27:21;101675.44;;;20.86;30.44
64115;BME280;62188;35.640;139.748;2023-03-31T03:29:46;101678.03;;;21.11;30.29
64115;BME280;62188;35.640;139.748;2023-03-31T03:32:12;101672.85;;;21.14;29.87
64115;BME280;62188;35.640;139.748;2023-03-31T03:34:37;101666.22;;;21.11;29.98
64115;BME280;62188;35.640;139.748;2023-03-31T03:37:02;101663.44;;;21.23;29.61
64115;BME280;62188;35.640;139.748;2023-03-31T03:39:28;101665.65;;;21.48;29.46
64115;BME280;62188;35.640;139.748;2023-03-31T03:41:53;101673.33;;;21.52;29.18
64115;BME280;62188;35.640;139.748;2023-03-31T03:44:18;101664.83;;;21.68;28.84
64115;BME280;62188;35.640;139.748;2023-03-31T03:46:45;101667.35;;;21.70;28.59
64115;BME280;62188;35.640;139.748;2023-03-31T03:49:09;101675.68;;;21.58;29.05
64115;BME280;62188;35.640;139.748;2023-03-31T03:51:35;101657.10;;;21.34;29.60
64115;BME280;62188;35.640;139.748;2023-03-31T03:54:01;101660.10;;;21.08;30.17
64115;BME280;62188;35.640;139.748;2023-03-31T03:56:26;101650.45;;;20.48;30.48
64115;BME280;62188;35.640;139.748;2023-03-31T03:58:51;101644.94;;;20.79;30.65
64115;BME280;62188;35.640;139.748;2023-03-31T04:01:17;101641.52;;;21.08;30.77
64115;BME280;62188;35.640;139.748;2023-03-31T04:03:44;101637.75;;;21.19;30.59
64115;BME280;62188;35.640;139.748;2023-03-31T04:06:08;101637.31;;;21.41;30.54
64115;BME280;62188;35.640;139.748;2023-03-31T04:08:33;101637.03;;;20.68;30.83
64115;BME280;62188;35.640;139.748;2023-03-31T04:11:00;101626.48;;;20.97;31.25
64115;BME280;62188;35.640;139.748;2023-03-31T04:13:24;101624.01;;;20.95;31.48
64115;BME280;62188;35.640;139.748;2023-03-31T04:15:50;101621.25;;;20.50;31.69
64115;BME280;62188;35.640;139.748;2023-03-31T04:18:16;101621.26;;;21.02;31.93
64115;BME280;62188;35.640;139.748;2023-03-31T04:20:40;101618.31;;;20.88;32.07
64115;BME280;62188;35.640;139.748;2023-03-31T04:23:06;101614.00;;;20.59;32.30
64115;BME280;62188;35.640;139.748;2023-03-31T04:25:32;101606.37;;;20.81;31.99
64115;BME280;62188;35.640;139.748;2023-03-31T04:27:57;101604.42;;;20.87;32.16
64115;BME280;62188;35.640;139.748;2023-03-31T04:30:24;101601.58;;;20.80;32.44
64115;BME280;62188;35.640;139.748;2023-03-31T04:32:49;101596.55;;;20.85;32.41
64115;BME280;62188;35.640;139.748;2023-03-31T04:35:14;101593.13;;;20.64;32.36
64115;BME280;62188;35.640;139.748;2023-03-31T04:37:39;101587.81;;;20.95;32.70
64115;BME280;62188;35.640;139.748;2023-03-31T04:40:06;101587.98;;;20.95;32.86
64115;BME280;62188;35.640;139.748;2023-03-31T04:42:30;101585.84;;;21.07;32.83
64115;BME280;62188;35.640;139.748;2023-03-31T04:44:55;101589.17;;;20.59;33.50
64115;BME280;62188;35.640;139.748;2023-03-31T04:47:21;101592.68;;;20.97;33.42
64115;BME280;62188;35.640;139.748;2023-03-31T04:49:46;101581.74;;;20.36;33.47
64115;BME280;62188;35.640;139.748;2023-03-31T04:52:12;101576.25;;;20.90;33.64
64115;BME280;62188;35.640;139.748;2023-03-31T04:54:38;101580.43;;;20.98;33.72
64115;BME280;62188;35.640;139.748;2023-03-31T04:57:03;101580.54;;;20.84;33.49
64115;BME280;62188;35.640;139.748;2023-03-31T04:59:28;101578.76;;;20.64;33.30
64115;BME280;62188;35.640;139.748;2023-03-31T05:01:54;101574.71;;;20.54;33.31
64115;BME280;62188;35.640;139.748;2023-03-31T05:04:19;101573.60;;;20.45;33.64
64115;BME280;62188;35.640;139.748;2023-03-31T05:06:45;101573.67;;;20.44;33.50
64115;BME280;62188;35.640;139.748;2023-03-31T05:09:12;101570.50;;;20.34;33.44
64115;BME280;62188;35.640;139.748;2023-03-31T05:11:37;101570.20;;;20.64;33.93
64115;BME280;62188;35.640;139.748;2023-03-31T05:14:02;101563.54;;;20.31;33.60
64115;BME280;62188;35.640;139.748;2023-03-31T05:16:29;101556.26;;;20.44;33.83
64115;BME280;62188;35.640;139.748;2023-03-31T05:18:54;101552.07;;;20.84;33.92
64115;BME280;62188;35.640;139.748;2023-03-31T05:21:21;101555.43;;;20.67;34.16
64115;BME280;62188;35.640;139.748;2023-03-31T05:23:45;101552.73;;;20.54;34.06
64115;BME280;62188;35.640;139.748;2023-03-31T05:26:10;101561.94;;;20.73;33.91
64115;BME280;62188;35.640;139.748;2023-03-31T05:28:35;101564.10;;;20.83;34.01
64115;BME280;62188;35.640;139.748;2023-03-31T05:31:01;101556.64;;;20.56;34.39
64115;BME280;62188;35.640;139.748;2023-03-31T05:33:26;101557.73;;;20.23;34.69
64115;BME280;62188;35.640;139.748;2023-03-31T05:35:51;101552.49;;;20.59;34.61
64115;BME280;62188;35.640;139.748;2023-03-31T05:38:17;101549.02;;;20.59;34.36
64115;BME280;62188;35.640;139.748;2023-03-31T05:40:42;101553.76;;;20.44;34.53
64115;BME280;62188;35.640;139.748;2023-03-31T05:43:08;101548.83;;;20.67;34.68
64115;BME280;62188;35.640;139.748;2023-03-31T05:45:33;101547.08;;;20.53;34.73
64115;BME280;62188;35.640;139.748;2023-03-31T05:47:58;101544.39;;;20.47;34.83
64115;BME280;62188;35.640;139.748;2023-03-31T05:50:24;101542.81;;;20.54;34.84
64115;BME280;62188;35.640;139.748;2023-03-31T05:52:49;101539.57;;;20.62;34.92
64115;BME280;62188;35.640;139.748;2023-03-31T05:55:15;101536.42;;;20.62;35.07
64115;BME280;62188;35.640;139.748;2023-03-31T05:57:40;101538.27;;;20.63;35.09
64115;BME280;62188;35.640;139.748;2023-03-31T06:00:12;101534.92;;;20.80;34.86
64115;BME280;62188;35.640;139.748;2023-03-31T06:02:32;101537.12;;;20.87;34.84
64115;BME280;62188;35.640;139.748;2023-03-31T06:04:57;101543.42;;;20.86;34.56
64115;BME280;62188;35.640;139.748;2023-03-31T06:07:25;101551.64;;;20.68;34.60
64115;BME280;62188;35.640;139.748;2023-03-31T06:09:48;101545.80;;;20.39;34.08
64115;BME280;62188;35.640;139.748;2023-03-31T06:12:14;101537.28;;;20.47;34.00
64115;BME280;62188;35.640;139.748;2023-03-31T06:14:39;101530.63;;;20.46;34.19
64115;BME280;62188;35.640;139.748;2023-03-31T06:17:05;101526.52;;;20.55;34.29
64115;BME280;62188;35.640;139.748;2023-03-31T06:19:30;101525.47;;;20.63;34.47
64115;BME280;62188;35.640;139.748;2023-03-31T06:21:56;101526.48;;;20.47;34.55
64115;BME280;62188;35.640;139.748;2023-03-31T06:24:21;101522.82;;;20.48;34.53
64115;BME280;62188;35.640;139.748;2023-03-31T06:26:47;101531.89;;;20.39;33.84
64115;BME280;62188;35.640;139.748;2023-03-31T06:29:12;101529.86;;;20.33;33.56
64115;BME280;62188;35.640;139.748;2023-03-31T06:31:38;101535.12;;;20.41;33.55
64115;BME280;62188;35.640;139.748;2023-03-31T06:34:03;101537.23;;;20.44;33.74
64115;BME280;62188;35.640;139.748;2023-03-31T06:36:28;101533.16;;;20.36;33.27
64115;BME280;62188;35.640;139.748;2023-03-31T06:38:54;101524.51;;;20.20;33.22
64115;BME280;62188;35.640;139.748;2023-03-31T06:41:20;101520.44;;;20.25;33.33
64115;BME280;62188;35.640;139.748;2023-03-31T06:43:45;101518.22;;;20.27;33.19
64115;BME280;62188;35.640;139.748;2023-03-31T06:46:10;101523.38;;;20.12;33.27
64115;BME280;62188;35.640;139.748;2023-03-31T06:48:36;101525.05;;;20.06;33.38
64115;BME280;62188;35.640;139.748;2023-03-31T06:51:03;101516.05;;;20.12;33.32
64115;BME280;62188;35.640;139.748;2023-03-31T06:53:27;101517.98;;;20.60;33.27
64115;BME280;62188;35.640;139.748;2023-03-31T06:55:52;101516.56;;;20.11;33.06
64115;BME280;62188;35.640;139.748;2023-03-31T06:58:18;101513.37;;;20.28;33.15
64115;BME280;62188;35.640;139.748;2023-03-31T07:00:44;101508.38;;;20.09;33.29
64115;BME280;62188;35.640;139.748;2023-03-31T07:03:10;101507.87;;;20.14;33.59
64115;BME280;62188;35.640;139.748;2023-03-31T07:05:35;101509.92;;;20.11;33.42
64115;BME280;62188;35.640;139.748;2023-03-31T07:08:02;101509.95;;;20.14;33.54
64115;BME280;62188;35.640;139.748;2023-03-31T07:10:28;101504.67;;;20.22;33.49
64115;BME280;62188;35.640;139.748;2023-03-31T07:12:51;101507.81;;;20.04;33.59
64115;BME280;62188;35.640;139.748;2023-03-31T07:15:17;101510.19;;;20.11;33.59
64115;BME280;62188;35.640;139.748;2023-03-31T07:17:42;101505.63;;;20.26;33.52
64115;BME280;62188;35.640;139.748;2023-03-31T07:20:09;101505.12;;;20.02;33.44
64115;BME280;62188;35.640;139.748;2023-03-31T07:22:33;101503.34;;;19.82;33.88
64115;BME280;62188;35.640;139.748;2023-03-31T07:24:59;101505.41;;;20.15;34.00
64115;BME280;62188;35.640;139.748;2023-03-31T07:27:24;101507.28;;;20.20;34.16
64115;BME280;62188;35.640;139.748;2023-03-31T07:29:49;101507.82;;;20.10;34.19
64115;BME280;62188;35.640;139.748;2023-03-31T07:32:16;101509.06;;;20.09;34.53
64115;BME280;62188;35.640;139.748;2023-03-31T07:34:41;101518.49;;;19.99;34.52
64115;BME280;62188;35.640;139.748;2023-03-31T07:37:07;101518.31;;;20.28;35.03
64115;BME280;62188;35.640;139.748;2023-03-31T07:39:34;101514.01;;;20.06;35.33
64115;BME280;62188;35.640;139.748;2023-03-31T07:41:58;101516.34;;;20.35;35.62
64115;BME280;62188;35.640;139.748;2023-03-31T07:44:23;101509.79;;;20.72;35.61
64115;BME280;62188;35.640;139.748;2023-03-31T07:46:48;101508.43;;;20.27;35.77
64115;BME280;62188;35.640;139.748;2023-03-31T07:49:14;101504.58;;;20.01;36.46
64115;BME280;62188;35.640;139.748;2023-03-31T07:51:40;101508.85;;;19.87;36.90
64115;BME280;62188;35.640;139.748;2023-03-31T07:54:06;101510.17;;;20.22;36.83
64115;BME280;62188;35.640;139.748;2023-03-31T07:56:31;101510.07;;;20.25;36.00
64115;BME280;62188;35.640;139.748;2023-03-31T07:58:56;101514.04;;;20.30;35.69
64115;BME280;62188;35.640;139.748;2023-03-31T08:01:22;101517.00;;;20.11;35.69
64115;BME280;62188;35.640;139.748;2023-03-31T08:03:48;101515.99;;;20.17;35.43
64115;BME280;62188;35.640;139.748;2023-03-31T08:06:18;101506.41;;;20.02;35.46
64115;BME280;62188;35.640;139.748;2023-03-31T08:08:38;101501.74;;;20.00;35.50
64115;BME280;62188;35.640;139.748;2023-03-31T08:11:04;101498.78;;;19.72;35.69
64115;BME280;62188;35.640;139.748;2023-03-31T08:13:29;101498.36;;;20.03;35.72
64115;BME280;62188;35.640;139.748;2023-03-31T08:15:54;101504.82;;;19.89;35.79
64115;BME280;62188;35.640;139.748;2023-03-31T08:18:20;101500.23;;;19.73;36.08
64115;BME280;62188;35.640;139.748;2023-03-31T08:20:45;101498.27;;;19.76;36.14
64115;BME280;62188;35.640;139.748;2023-03-31T08:23:11;101488.29;;;20.12;35.97
64115;BME280;62188;35.640;139.748;2023-03-31T08:25:37;101489.44;;;19.81;35.82
64115;BME280;62188;35.640;139.748;2023-03-31T08:28:02;101488.03;;;19.48;35.98
64115;BME280;62188;35.640;139.748;2023-03-31T08:30:28;101483.03;;;19.71;36.07
64115;BME280;62188;35.640;139.748;2023-03-31T08:32:53;101484.99;;;20.01;36.20
64115;BME280;62188;35.640;139.748;2023-03-31T08:35:19;101481.17;;;19.91;36.15
64115;BME280;62188;35.640;139.748;2023-03-31T08:37:44;101484.91;;;19.69;36.23
64115;BME280;62188;35.640;139.748;2023-03-31T08:40:15;101487.43;;;19.76;36.48
64115;BME280;62188;35.640;139.748;2023-03-31T08:42:38;101484.39;;;19.87;36.64
64115;BME280;62188;35.640;139.748;2023-03-31T08:45:04;101489.70;;;20.00;36.60
64115;BME280;62188;35.640;139.748;2023-03-31T08:47:28;101482.67;;;19.67;36.68
64115;BME280;62188;35.640;139.748;2023-03-31T08:49:55;101487.17;;;20.02;36.70
64115;BME280;62188;35.640;139.748;2023-03-31T08:52:25;101480.11;;;19.91;36.76
64115;BME280;62188;35.640;139.748;2023-03-31T08:54:45;101482.59;;;19.71;37.06
64115;BME280;62188;35.640;139.748;2023-03-31T08:57:14;101480.22;;;19.70;36.89
64115;BME280;62188;35.640;139.748;2023-03-31T08:59:35;101479.74;;;19.64;37.05
64115;BME280;62188;35.640;139.748;2023-03-31T09:02:09;101484.20;;;19.70;37.10
64115;BME280;62188;35.640;139.748;2023-03-31T09:06:55;101474.84;;;19.52;36.95
64115;BME280;62188;35.640;139.748;2023-03-31T09:09:20;101477.27;;;19.33;36.97
64115;BME280;62188;35.640;139.748;2023-03-31T09:11:46;101478.18;;;19.43;37.07
64115;BME280;62188;35.640;139.748;2023-03-31T09:14:24;101474.28;;;19.45;37.11
64115;BME280;62188;35.640;139.748;2023-03-31T09:16:36;101475.89;;;19.60;36.95
64115;BME280;62188;35.640;139.748;2023-03-31T09:19:00;101475.26;;;19.44;36.86
64115;BME280;62188;35.640;139.748;2023-03-31T09:21:27;101480.05;;;19.31;36.69
64115;BME280;62188;35.640;139.748;2023-03-31T09:23:52;101479.13;;;19.72;36.72
64115;BME280;62188;35.640;139.748;2023-03-31T09:26:21;101485.06;;;19.81;36.71
64115;BME280;62188;35.640;139.748;2023-03-31T09:28:40;101485.17;;;19.76;36.82
64115;BME280;62188;35.640;139.748;2023-03-31T09:31:12;101488.15;;;19.38;37.11
64115;BME280;62188;35.640;139.748;2023-03-31T09:33:31;101486.24;;;19.55;37.26
64115;BME280;62188;35.640;139.748;2023-03-31T09:35:56;101484.21;;;19.22;37.49
64115;BME280;62188;35.640;139.748;2023-03-31T09:38:21;101487.50;;;19.46;37.64
64115;BME280;62188;35.640;139.748;2023-03-31T09:40:48;101488.17;;;19.25;37.76
64115;BME280;62188;35.640;139.748;2023-03-31T09:43:20;101489.46;;;19.55;37.83
64115;BME280;62188;35.640;139.748;2023-03-31T09:45:38;101488.10;;;19.57;37.91
64115;BME280;62188;35.640;139.748;2023-03-31T09:48:06;101494.56;;;19.69;37.83
64115;BME280;62188;35.640;139.748;2023-03-31T09:50:29;101493.92;;;19.38;38.04
64115;BME280;62188;35.640;139.748;2023-03-31T09:52:57;101495.71;;;19.39;38.11
64115;BME280;62188;35.640;139.748;2023-03-31T09:55:23;101494.65;;;19.22;38.41
64115;BME280;62188;35.640;139.748;2023-03-31T09:57:45;101496.09;;;19.53;38.36
64115;BME280;62188;35.640;139.748;2023-03-31T10:00:17;101496.60;;;19.35;38.32
64115;BME280;62188;35.640;139.748;2023-03-31T10:02:37;101494.07;;;19.30;38.48
64115;BME280;62188;35.640;139.748;2023-03-31T10:05:03;101498.97;;;19.59;38.39
64115;BME280;62188;35.640;139.748;2023-03-31T10:07:27;101501.56;;;19.47;38.65
64115;BME280;62188;35.640;139.748;2023-03-31T10:09:54;101506.11;;;19.27;38.74
64115;BME280;62188;35.640;139.748;2023-03-31T10:12:21;101507.08;;;19.44;38.71
64115;BME280;62188;35.640;139.748;2023-03-31T10:14:46;101509.64;;;19.20;38.75
64115;BME280;62188;35.640;139.748;2023-03-31T10:17:15;101512.84;;;19.21;38.79
64115;BME280;62188;35.640;139.748;2023-03-31T10:19:36;101511.83;;;19.42;38.79
64115;BME280;62188;35.640;139.748;2023-03-31T10:22:02;101509.33;;;19.29;38.99
64115;BME280;62188;35.640;139.748;2023-03-31T10:24:27;101512.17;;;19.37;38.96
64115;BME280;62188;35.640;139.748;2023-03-31T10:26:55;101512.27;;;19.44;38.96
64115;BME280;62188;35.640;139.748;2023-03-31T10:29:20;101512.48;;;19.40;38.97
64115;BME280;62188;35.640;139.748;2023-03-31T10:31:42;101511.17;;;19.43;39.01
64115;BME280;62188;35.640;139.748;2023-03-31T10:34:11;101513.38;;;19.51;38.89
64115;BME280;62188;35.640;139.748;2023-03-31T10:36:33;101513.13;;;19.51;38.84
64115;BME280;62188;35.640;139.748;2023-03-31T10:38:58;101511.83;;;19.49;38.87
64115;BME280;62188;35.640;139.748;2023-03-31T10:41:26;101513.49;;;19.38;39.09
64115;BME280;62188;35.640;139.748;2023-03-31T10:43:53;101515.00;;;19.08;39.19
64115;BME280;62188;35.640;139.748;2023-03-31T10:46:15;101514.38;;;19.29;39.25
64115;BME280;62188;35.640;139.748;2023-03-31T10:48:42;101516.16;;;19.29;39.28
64115;BME280;62188;35.640;139.748;2023-03-31T10:51:13;101518.26;;;19.29;39.21
64115;BME280;62188;35.640;139.748;2023-03-31T10:53:39;101523.71;;;19.31;39.23
64115;BME280;62188;35.640;139.748;2023-03-31T10:56:07;101525.86;;;19.18;39.36
64115;BME280;62188;35.640;139.748;2023-03-31T10:58:33;101526.89;;;19.18;39.40
64115;BME280;62188;35.640;139.748;2023-03-31T11:00:58;101527.92;;;19.20;39.43
64115;BME280;62188;35.640;139.748;2023-03-31T11:03:26;101525.54;;;19.27;39.45
64115;BME280;62188;35.640;139.748;2023-03-31T11:08:15;101522.53;;;19.34;39.42
64115;BME280;62188;35.640;139.748;2023-03-31T11:10:42;101525.23;;;19.15;39.33
64115;BME280;62188;35.640;139.748;2023-03-31T11:12:59;101526.48;;;19.29;39.51
64115;BME280;62188;35.640;139.748;2023-03-31T11:15:28;101525.56;;;19.27;39.61
64115;BME280;62188;35.640;139.748;2023-03-31T11:17:59;101523.98;;;19.56;39.55
64115;BME280;62188;35.640;139.748;2023-03-31T11:20:22;101521.68;;;19.37;39.50
64115;BME280;62188;35.640;139.748;2023-03-31T11:22:45;101522.46;;;19.41;39.47
64115;BME280;62188;35.640;139.748;2023-03-31T11:25:15;101522.09;;;19.12;39.52
64115;BME280;62188;35.640;139.748;2023-03-31T11:27:38;101525.97;;;19.47;39.50
64115;BME280;62188;35.640;139.748;2023-03-31T11:29:58;101526.83;;;19.56;39.29
64115;BME280;62188;35.640;139.748;2023-03-31T11:32:29;101529.98;;;19.62;39.20
64115;BME280;62188;35.640;139.748;2023-03-31T11:34:56;101532.51;;;19.59;39.13
64115;BME280;62188;35.640;139.748;2023-03-31T11:37:19;101532.85;;;19.06;39.26
64115;BME280;62188;35.640;139.748;2023-03-31T11:39:47;101537.08;;;19.33;39.27
64115;BME280;62188;35.640;139.748;2023-03-31T11:42:05;101536.90;;;19.54;39.42
64115;BME280;62188;35.640;139.748;2023-03-31T11:44:39;101534.38;;;19.59;39.36
64115;BME280;62188;35.640;139.748;2023-03-31T11:46:56;101534.88;;;19.63;39.42
64115;BME280;62188;35.640;139.748;2023-03-31T11:49:22;101535.35;;;19.64;39.18
64115;BME280;62188;35.640;139.748;2023-03-31T11:51:50;101537.10;;;19.45;39.13
64115;BME280;62188;35.640;139.748;2023-03-31T11:54:16;101534.30;;;19.45;39.12
64115;BME280;62188;35.640;139.748;2023-03-31T11:56:37;101533.59;;;19.52;39.15
64115;BME280;62188;35.640;139.748;2023-03-31T11:59:01;101528.23;;;19.59;38.99
64115;BME280;62188;35.640;139.748;2023-03-31T12:01:29;101527.71;;;19.35;38.98
64115;BME280;62188;35.640;139.748;2023-03-31T12:03:59;101527.10;;;19.59;38.94
64115;BME280;62188;35.640;139.748;2023-03-31T12:06:19;101528.95;;;19.39;38.96
64115;BME280;62188;35.640;139.748;2023-03-31T12:08:48;101531.86;;;19.41;38.92
64115;BME280;62188;35.640;139.748;2023-03-31T12:11:11;101535.34;;;19.69;38.84
64115;BME280;62188;35.640;139.748;2023-03-31T12:13:43;101534.49;;;19.73;38.72
64115;BME280;62188;35.640;139.748;2023-03-31T12:16:04;101536.96;;;19.73;38.51
64115;BME280;62188;35.640;139.748;2023-03-31T12:18:26;101536.69;;;19.48;38.21
64115;BME280;62188;35.640;139.748;2023-03-31T12:20:51;101537.30;;;19.71;37.88
64115;BME280;62188;35.640;139.748;2023-03-31T12:23:17;101538.17;;;19.69;37.72
64115;BME280;62188;35.640;139.748;2023-03-31T12:25:46;101539.36;;;19.93;37.45
64115;BME280;62188;35.640;139.748;2023-03-31T12:28:06;101535.13;;;19.67;37.16
64115;BME280;62188;35.640;139.748;2023-03-31T12:30:33;101534.35;;;19.90;37.11
64115;BME280;62188;35.640;139.748;2023-03-31T12:33:01;101536.31;;;19.68;37.14
64115;BME280;62188;35.640;139.748;2023-03-31T12:35:25;101537.99;;;19.67;37.18
64115;BME280;62188;35.640;139.748;2023-03-31T12:37:59;101537.38;;;19.90;37.06
64115;BME280;62188;35.640;139.748;2023-03-31T12:40:21;101536.15;;;19.65;36.86
64115;BME280;62188;35.640;139.748;2023-03-31T12:42:49;101534.70;;;19.91;36.78
64115;BME280;62188;35.640;139.748;2023-03-31T12:52:26;101528.90;;;19.48;36.40